Time;durP1;ratioP1;P1;durP2;ratioP2;P2;SDS_P1;SDS_P2;PMS_P1;PMS_P2;Temp;Humidity;BMP_temperature;BMP_pressure;BME280_temperature;BME280_humidity;BME280_pressure;Samples;Min_cycle;Max_cycle;Signal;HPM_P1;HPM_P2
2023/10/30 00:00:30;;;;;;;3.43;3.13;;;14.30;99.90;;;;;;5008528;28;20441;-66
2023/10/30 00:02:56;;;;;;;3.40;2.90;;;14.40;99.90;;;;;;5014735;28;20186;-69
2023/10/30 00:05:21;;;;;;;4.83;3.00;;;14.30;99.90;;;;;;5014897;28;20970;-68
2023/10/30 00:07:47;;;;;;;5.50;2.93;;;14.30;99.90;;;;;;5014128;28;20309;-68
2023/10/30 00:10:13;;;;;;;3.47;3.10;;;14.30;99.90;;;;;;5014861;28;20177;-69
2023/10/30 00:12:38;;;;;;;7.13;3.47;;;14.40;99.90;;;;;;5013937;28;20181;-68
2023/10/30 00:15:05;;;;;;;3.53;3.33;;;14.40;99.90;;;;;;5014312;28;20586;-68
2023/10/30 00:17:30;;;;;;;4.33;3.77;;;14.30;99.90;;;;;;5013516;28;20177;-61
2023/10/30 00:19:56;;;;;;;3.90;3.30;;;14.20;99.90;;;;;;5014738;28;20879;-69
2023/10/30 00:22:22;;;;;;;3.00;2.80;;;14.20;99.90;;;;;;5014954;28;20230;-68
2023/10/30 00:24:48;;;;;;;3.30;3.07;;;14.30;99.90;;;;;;5013689;28;20340;-69
2023/10/30 00:27:16;;;;;;;3.13;2.93;;;14.30;99.90;;;;;;5013363;28;20256;-68
2023/10/30 00:29:42;;;;;;;6.93;3.43;;;14.30;99.90;;;;;;5011392;28;20911;-68
2023/10/30 00:32:08;;;;;;;7.30;3.20;;;14.30;99.90;;;;;;5014531;28;20415;-69
2023/10/30 00:34:35;;;;;;;2.83;2.63;;;14.40;99.90;;;;;;5013669;28;20428;-68
2023/10/30 00:37:01;;;;;;;4.90;3.00;;;14.40;99.90;;;;;;5014273;28;20511;-68
2023/10/30 00:39:31;;;;;;;3.87;2.77;;;14.40;99.90;;;;;;5013781;28;20428;-68
2023/10/30 00:42:00;;;;;;;3.13;2.73;;;14.50;99.90;;;;;;5014645;28;20411;-68
2023/10/30 00:44:27;;;;;;;3.10;2.83;;;14.40;99.90;;;;;;5014190;28;20545;-69
2023/10/30 00:46:53;;;;;;;4.03;2.63;;;14.50;99.90;;;;;;5012981;28;20996;-68
2023/10/30 00:49:20;;;;;;;5.70;2.50;;;14.40;99.90;;;;;;5013915;28;20419;-68
2023/10/30 00:51:46;;;;;;;5.60;3.37;;;14.40;99.90;;;;;;5013255;28;20976;-68
2023/10/30 00:54:11;;;;;;;2.97;2.67;;;14.50;99.90;;;;;;5014362;28;20422;-68
2023/10/30 00:56:37;;;;;;;10.80;3.10;;;14.40;99.90;;;;;;5011976;28;20795;-68
2023/10/30 00:59:03;;;;;;;6.50;2.83;;;14.40;99.90;;;;;;5011977;28;20183;-68
2023/10/30 01:01:29;;;;;;;6.23;3.03;;;14.30;99.90;;;;;;5013026;28;20432;-60
2023/10/30 01:03:55;;;;;;;4.90;2.80;;;14.40;99.90;;;;;;5013061;28;20250;-69
2023/10/30 01:06:20;;;;;;;3.00;2.90;;;14.40;99.90;;;;;;5013843;28;20180;-68
2023/10/30 01:08:46;;;;;;;5.60;2.80;;;14.30;99.90;;;;;;5013281;28;20172;-68
2023/10/30 01:11:12;;;;;;;3.20;2.90;;;14.20;99.90;;;;;;5013403;28;20179;-68
2023/10/30 01:13:38;;;;;;;3.83;3.23;;;14.20;99.90;;;;;;5013036;28;20269;-68
2023/10/30 01:16:05;;;;;;;3.37;3.07;;;14.10;99.90;;;;;;5013402;28;20172;-68
2023/10/30 01:18:31;;;;;;;8.97;3.53;;;14.20;99.90;;;;;;5012052;28;20252;-60
2023/10/30 01:20:57;;;;;;;4.10;2.60;;;14.20;99.90;;;;;;5011729;28;20419;-68
2023/10/30 01:23:22;;;;;;;2.63;2.40;;;14.00;99.90;;;;;;5012549;28;20525;-68
2023/10/30 01:25:49;;;;;;;4.93;2.97;;;14.00;99.90;;;;;;5012847;28;20230;-68
2023/10/30 01:28:15;;;;;;;2.70;2.50;;;13.90;99.90;;;;;;5013725;28;20263;-68
2023/10/30 01:30:41;;;;;;;7.60;2.87;;;14.00;99.90;;;;;;5011432;28;20418;-68
2023/10/30 01:33:06;;;;;;;4.27;2.67;;;13.90;99.90;;;;;;5013712;28;20453;-68
2023/10/30 01:35:32;;;;;;;3.17;2.87;;;13.90;99.90;;;;;;5012651;28;20238;-61
2023/10/30 01:37:58;;;;;;;3.43;2.80;;;14.00;99.90;;;;;;5011826;28;20184;-68
2023/10/30 01:40:24;;;;;;;4.77;3.37;;;14.10;99.90;;;;;;5008581;28;20178;-68
2023/10/30 01:42:51;;;;;;;4.20;3.60;;;14.10;99.90;;;;;;5009142;28;20430;-68
2023/10/30 01:45:16;;;;;;;6.50;2.83;;;14.10;99.90;;;;;;5012896;28;20230;-67
2023/10/30 01:47:43;;;;;;;4.70;2.80;;;14.20;99.90;;;;;;5012488;28;20458;-67
2023/10/30 01:50:10;;;;;;;5.77;3.40;;;14.20;99.90;;;;;;5013126;28;20570;-68
2023/10/30 01:52:36;;;;;;;3.37;3.07;;;14.30;99.90;;;;;;5012257;28;20851;-61
2023/10/30 01:55:03;;;;;;;5.73;3.70;;;14.20;99.90;;;;;;5013246;28;20434;-68
2023/10/30 01:57:31;;;;;;;3.37;3.10;;;14.20;99.90;;;;;;5013007;28;20437;-68
2023/10/30 01:59:58;;;;;;;5.27;3.00;;;14.30;99.90;;;;;;5011185;28;20804;-68
2023/10/30 02:02:25;;;;;;;6.97;3.20;;;14.30;99.90;;;;;;5012775;28;20411;-69
2023/10/30 02:04:51;;;;;;;3.07;2.87;;;14.20;99.90;;;;;;5011220;28;20474;-68
2023/10/30 02:07:17;;;;;;;5.77;2.90;;;14.20;99.90;;;;;;5012337;28;20423;-68
2023/10/30 02:09:42;;;;;;;3.67;2.83;;;14.10;99.90;;;;;;5010871;28;20201;-67
2023/10/30 02:12:08;;;;;;;4.30;2.97;;;14.10;99.90;;;;;;5012592;28;20639;-69
2023/10/30 02:14:34;;;;;;;4.57;3.00;;;14.20;99.90;;;;;;5011162;28;20423;-62
2023/10/30 02:17:00;;;;;;;8.43;2.60;;;14.20;99.90;;;;;;5011872;28;20172;-69
2023/10/30 02:19:27;;;;;;;5.03;3.17;;;14.30;99.90;;;;;;5012366;28;20928;-69
2023/10/30 02:21:54;;;;;;;4.33;2.60;;;14.30;99.90;;;;;;5011740;28;20205;-68
2023/10/30 02:24:20;;;;;;;5.83;3.20;;;14.30;99.90;;;;;;5011426;28;20467;-68
2023/10/30 02:26:47;;;;;;;9.40;3.10;;;14.30;99.90;;;;;;5010589;28;20528;-68
2023/10/30 02:29:14;;;;;;;4.80;3.60;;;14.30;99.90;;;;;;5011746;28;20852;-68
2023/10/30 02:31:40;;;;;;;3.20;2.87;;;14.30;99.90;;;;;;5011590;28;20917;-67
2023/10/30 02:34:06;;;;;;;3.83;3.33;;;14.30;99.90;;;;;;5012694;28;20414;-68
2023/10/30 02:36:32;;;;;;;6.97;3.37;;;14.30;99.90;;;;;;5012714;28;20402;-68
2023/10/30 02:38:57;;;;;;;3.83;3.53;;;14.30;99.90;;;;;;5011378;28;20564;-68
2023/10/30 02:41:23;;;;;;;3.00;2.70;;;14.30;99.90;;;;;;5012463;28;20171;-68
2023/10/30 02:43:49;;;;;;;5.50;3.20;;;14.30;99.90;;;;;;5010912;28;20290;-68
2023/10/30 02:46:15;;;;;;;5.67;3.77;;;14.20;99.90;;;;;;5012271;28;20552;-69
2023/10/30 02:48:40;;;;;;;3.80;3.10;;;14.30;99.90;;;;;;5011554;28;20172;-68
2023/10/30 02:51:06;;;;;;;5.77;3.23;;;14.20;99.90;;;;;;5011911;28;20226;-69
2023/10/30 02:53:32;;;;;;;3.43;2.90;;;14.00;99.90;;;;;;5012131;28;20189;-69
2023/10/30 02:55:59;;;;;;;3.93;3.23;;;14.10;99.90;;;;;;5011372;28;20236;-69
2023/10/30 02:58:25;;;;;;;4.47;3.13;;;14.00;99.90;;;;;;5012406;28;20421;-68
2023/10/30 03:00:53;;;;;;;4.87;3.17;;;14.00;99.90;;;;;;5011634;28;20405;-69
2023/10/30 03:03:19;;;;;;;4.80;3.30;;;14.10;99.90;;;;;;5010887;28;20178;-69
2023/10/30 03:05:45;;;;;;;3.50;3.20;;;14.10;99.90;;;;;;5011560;28;20480;-68
2023/10/30 03:08:11;;;;;;;3.23;2.80;;;14.10;99.90;;;;;;5012162;28;20261;-69
2023/10/30 03:10:37;;;;;;;3.93;3.20;;;14.20;99.90;;;;;;5011138;28;20426;-61
2023/10/30 03:13:03;;;;;;;5.40;3.30;;;14.20;99.90;;;;;;5010817;28;20956;-70
2023/10/30 03:15:29;;;;;;;3.87;3.20;;;14.20;99.90;;;;;;5011634;28;20424;-71
2023/10/30 03:17:54;;;;;;;3.10;2.80;;;14.20;99.90;;;;;;5011196;28;20181;-69
2023/10/30 03:20:20;;;;;;;5.23;3.67;;;14.20;99.90;;;;;;5012013;28;20241;-68
2023/10/30 03:22:46;;;;;;;5.70;3.10;;;14.30;99.90;;;;;;5011000;28;20636;-72
2023/10/30 03:25:12;;;;;;;3.13;2.83;;;14.30;99.90;;;;;;5011924;28;20212;-73
2023/10/30 03:27:38;;;;;;;3.47;3.20;;;14.20;99.90;;;;;;5012036;28;20176;-63
2023/10/30 03:30:04;;;;;;;5.00;3.00;;;14.30;99.90;;;;;;5011623;28;20410;-73
2023/10/30 03:32:30;;;;;;;5.43;3.03;;;14.30;99.90;;;;;;5011618;28;20419;-73
2023/10/30 03:34:56;;;;;;;6.00;3.40;;;14.30;99.90;;;;;;5011470;28;20747;-72
2023/10/30 03:37:22;;;;;;;3.23;3.03;;;14.30;99.90;;;;;;5015763;28;20176;-72
2023/10/30 03:39:47;;;;;;;3.07;2.87;;;14.30;99.90;;;;;;5014509;28;20184;-72
2023/10/30 03:42:13;;;;;;;4.90;3.30;;;14.30;99.90;;;;;;5012613;28;20644;-72
2023/10/30 03:44:39;;;;;;;3.20;3.00;;;14.40;99.90;;;;;;5015019;28;20224;-63
2023/10/30 03:47:05;;;;;;;3.50;3.20;;;14.40;99.90;;;;;;5014570;28;20267;-73
2023/10/30 03:49:30;;;;;;;4.90;3.13;;;14.50;99.90;;;;;;5015518;28;20192;-72
2023/10/30 03:51:56;;;;;;;3.90;2.90;;;14.40;99.90;;;;;;5014829;28;20281;-72
2023/10/30 03:54:22;;;;;;;4.73;3.03;;;14.50;99.90;;;;;;5015243;28;20227;-74
2023/10/30 03:56:48;;;;;;;3.40;3.00;;;14.40;99.90;;;;;;5014612;28;20230;-64
2023/10/30 03:59:16;;;;;;;6.17;3.40;;;14.40;99.90;;;;;;5013746;28;20427;-64
2023/10/30 04:01:42;;;;;;;6.20;3.03;;;14.30;99.90;;;;;;5010430;28;20540;-59
2023/10/30 04:04:08;;;;;;;6.40;3.20;;;14.30;99.90;;;;;;4995176;28;20461;-64
2023/10/30 04:06:37;;;;;;;3.83;3.50;;;14.10;99.90;;;;;;4995713;28;20494;-64
2023/10/30 04:09:04;;;;;;;4.63;2.90;;;14.00;99.90;;;;;;4994816;28;20195;-64
2023/10/30 04:11:30;;;;;;;7.43;3.67;;;14.00;99.90;;;;;;5010383;28;20549;-63
2023/10/30 04:13:56;;;;;;;3.30;3.00;;;14.00;99.90;;;;;;5012933;28;20778;-64
2023/10/30 04:16:22;;;;;;;8.30;3.93;;;14.10;99.90;;;;;;5014928;28;20579;-63
2023/10/30 04:18:48;;;;;;;6.93;3.00;;;14.10;99.90;;;;;;5013911;28;20460;-64
2023/10/30 04:21:14;;;;;;;5.73;3.23;;;14.10;99.90;;;;;;5014754;28;20203;-64
2023/10/30 04:23:42;;;;;;;3.47;3.17;;;14.10;99.90;;;;;;5014104;28;20496;-64
2023/10/30 04:26:08;;;;;;;7.40;3.23;;;14.10;99.90;;;;;;5015064;28;20167;-64
2023/10/30 04:28:34;;;;;;;3.70;2.80;;;14.10;99.90;;;;;;5014434;28;20825;-65
2023/10/30 04:31:00;;;;;;;6.80;3.77;;;14.10;99.90;;;;;;5013985;28;20403;-64
2023/10/30 04:33:26;;;;;;;3.83;3.37;;;14.10;99.90;;;;;;5013403;28;20448;-65
2023/10/30 04:35:53;;;;;;;3.23;2.93;;;14.10;99.90;;;;;;5013602;28;20454;-65
2023/10/30 04:38:20;;;;;;;5.23;3.33;;;14.10;99.90;;;;;;5013088;28;20934;-64
2023/10/30 04:40:46;;;;;;;7.43;3.60;;;14.00;99.90;;;;;;5012357;28;20438;-59
2023/10/30 04:43:12;;;;;;;8.00;4.77;;;14.00;99.90;;;;;;5012537;28;20426;-62
2023/10/30 04:45:38;;;;;;;3.33;3.00;;;14.00;99.90;;;;;;5012823;28;20278;-62
2023/10/30 04:48:04;;;;;;;5.63;5.07;;;13.90;99.90;;;;;;5012298;28;20191;-60
2023/10/30 04:50:30;;;;;;;3.50;2.90;;;14.00;99.90;;;;;;5013053;28;20227;-61
2023/10/30 04:52:56;;;;;;;6.50;4.03;;;14.10;99.90;;;;;;5010639;28;20449;-61
2023/10/30 04:55:22;;;;;;;3.07;2.80;;;14.20;99.90;;;;;;5013191;28;20414;-62
2023/10/30 04:57:47;;;;;;;6.87;2.43;;;14.30;99.90;;;;;;5013177;28;20818;-61
2023/10/30 05:00:13;;;;;;;6.80;2.70;;;14.10;99.90;;;;;;5013606;28;20179;-64
2023/10/30 05:02:39;;;;;;;6.87;2.60;;;14.20;99.90;;;;;;5012789;28;20187;-63
2023/10/30 05:05:05;;;;;;;10.40;5.33;;;14.20;99.90;;;;;;5013017;28;20506;-63
2023/10/30 05:07:31;;;;;;;4.50;3.93;;;14.30;99.90;;;;;;5013985;28;20548;-63
2023/10/30 05:09:57;;;;;;;5.70;3.47;;;14.30;99.90;;;;;;5013275;28;20403;-63
2023/10/30 05:12:22;;;;;;;4.90;3.20;;;14.40;99.90;;;;;;5013520;28;20206;-63
2023/10/30 05:14:48;;;;;;;4.33;2.90;;;14.50;99.90;;;;;;5010240;28;20271;-62
2023/10/30 05:17:14;;;;;;;4.63;2.87;;;14.60;99.90;;;;;;5011794;28;20195;-63
2023/10/30 05:19:40;;;;;;;3.57;2.70;;;14.70;99.90;;;;;;5006540;28;20547;-62
2023/10/30 05:22:05;;;;;;;4.13;3.43;;;14.50;99.90;;;;;;5011568;28;20416;-78
2023/10/30 05:24:31;;;;;;;5.17;4.27;;;14.60;99.90;;;;;;5010981;28;20714;-70
2023/10/30 05:26:57;;;;;;;4.90;2.67;;;14.60;99.90;;;;;;5012712;28;20653;-70
2023/10/30 05:29:23;;;;;;;7.93;2.77;;;14.60;99.90;;;;;;5013669;28;20177;-69
2023/10/30 05:31:48;;;;;;;3.60;2.60;;;14.50;99.90;;;;;;5011617;28;20181;-62
2023/10/30 05:34:14;;;;;;;8.13;3.10;;;14.60;99.90;;;;;;5013512;28;20181;-70
2023/10/30 05:36:40;;;;;;;5.07;3.50;;;14.50;99.90;;;;;;5013397;28;20217;-69
2023/10/30 05:39:06;;;;;;;6.33;3.47;;;14.50;99.90;;;;;;5008786;28;20782;-69
2023/10/30 05:41:32;;;;;;;5.50;2.87;;;14.50;99.90;;;;;;5012143;28;20412;-68
2023/10/30 05:43:58;;;;;;;6.17;2.77;;;14.50;99.90;;;;;;5012110;28;20451;-70
2023/10/30 05:46:23;;;;;;;4.57;3.40;;;14.50;99.90;;;;;;5010535;28;20232;-69
2023/10/30 05:48:49;;;;;;;5.67;3.07;;;14.50;99.90;;;;;;5011652;28;20535;-63
2023/10/30 05:51:15;;;;;;;3.17;2.37;;;14.40;99.90;;;;;;5012664;28;20219;-70
2023/10/30 05:53:42;;;;;;;6.60;3.30;;;14.40;99.90;;;;;;5011767;28;20193;-70
2023/10/30 05:56:08;;;;;;;4.70;3.03;;;14.30;99.90;;;;;;5012439;28;20630;-70
2023/10/30 05:58:34;;;;;;;3.13;2.80;;;14.30;99.90;;;;;;5011596;28;20950;-70
2023/10/30 06:01:00;;;;;;;6.00;4.00;;;14.20;99.90;;;;;;5012115;28;20408;-69
2023/10/30 06:03:25;;;;;;;5.43;3.70;;;14.00;99.90;;;;;;5013006;28;20201;-70
2023/10/30 06:05:51;;;;;;;6.20;2.47;;;14.00;99.90;;;;;;5012008;28;20562;-65
2023/10/30 06:08:22;;;;;;;6.70;2.80;;;14.00;99.90;;;;;;5013018;28;20410;-69
2023/10/30 06:10:47;;;;;;;3.90;2.70;;;14.00;99.90;;;;;;5012968;28;20171;-62
2023/10/30 06:13:13;;;;;;;6.47;4.80;;;14.00;99.90;;;;;;5012115;28;20419;-69
2023/10/30 06:15:39;;;;;;;7.00;2.80;;;14.00;99.90;;;;;;5012571;28;20186;-70
2023/10/30 06:18:05;;;;;;;6.97;5.23;;;14.00;99.90;;;;;;5011880;28;20588;-69
2023/10/30 06:20:31;;;;;;;5.43;3.80;;;14.10;99.90;;;;;;5011714;28;20501;-69
2023/10/30 06:22:57;;;;;;;5.20;3.50;;;14.10;99.90;;;;;;5011748;28;20183;-70
2023/10/30 06:25:24;;;;;;;5.43;3.47;;;14.20;99.90;;;;;;5012284;28;20509;-70
2023/10/30 06:27:50;;;;;;;5.93;3.77;;;14.10;99.90;;;;;;5012358;28;20411;-61
2023/10/30 06:30:17;;;;;;;6.50;3.60;;;14.10;99.90;;;;;;5012305;28;20447;-70
2023/10/30 06:32:43;;;;;;;4.87;4.33;;;14.00;99.90;;;;;;4994872;28;20186;-69
2023/10/30 06:35:09;;;;;;;6.47;3.90;;;13.90;99.90;;;;;;5011487;28;20503;-68
2023/10/30 06:37:35;;;;;;;5.50;3.53;;;13.90;99.90;;;;;;5010137;28;20443;-68
2023/10/30 06:40:03;;;;;;;5.10;4.60;;;13.70;99.90;;;;;;5011576;28;20420;-68
2023/10/30 06:42:29;;;;;;;6.37;4.33;;;13.80;99.90;;;;;;5012566;28;20433;-68
2023/10/30 06:44:55;;;;;;;5.63;3.47;;;13.90;99.90;;;;;;5011571;28;20935;-67
2023/10/30 06:47:21;;;;;;;6.60;6.00;;;13.90;99.90;;;;;;5010161;28;20179;-68
2023/10/30 06:49:46;;;;;;;5.60;3.37;;;14.00;99.90;;;;;;5001508;28;20415;-68
2023/10/30 06:52:12;;;;;;;8.30;3.70;;;14.00;99.90;;;;;;5011005;28;20252;-68
2023/10/30 06:54:38;;;;;;;6.90;5.73;;;13.90;99.90;;;;;;5011348;28;20325;-63
2023/10/30 06:57:04;;;;;;;3.50;3.20;;;13.90;99.90;;;;;;5010548;28;20176;-63
2023/10/30 06:59:30;;;;;;;6.30;3.90;;;14.00;99.90;;;;;;5010868;28;20415;-63
2023/10/30 07:01:56;;;;;;;5.97;5.67;;;14.30;99.90;;;;;;5010593;28;20428;-65
2023/10/30 07:04:22;;;;;;;3.70;3.20;;;14.60;99.90;;;;;;5011295;28;20197;-63
2023/10/30 07:06:48;;;;;;;3.70;3.40;;;14.80;99.90;;;;;;5012217;28;20239;-63
2023/10/30 07:09:15;;;;;;;9.93;6.50;;;14.90;99.90;;;;;;5012437;28;20422;-63
2023/10/30 07:11:40;;;;;;;3.73;3.43;;;14.90;99.90;;;;;;5016076;28;20514;-63
2023/10/30 07:14:08;;;;;;;4.13;3.77;;;15.20;99.90;;;;;;5013619;28;20453;-63
2023/10/30 07:16:35;;;;;;;5.37;4.87;;;15.30;99.90;;;;;;5012350;28;20648;-63
2023/10/30 07:19:01;;;;;;;4.20;3.90;;;15.50;99.90;;;;;;5019118;28;20416;-63
2023/10/30 07:21:28;;;;;;;5.17;3.00;;;15.70;99.90;;;;;;5017273;28;20519;-63
2023/10/30 07:23:54;;;;;;;8.33;3.63;;;15.80;99.90;;;;;;5004261;28;20465;-61
2023/10/30 07:26:21;;;;;;;4.20;3.80;;;15.80;99.90;;;;;;5015491;28;20479;-63
2023/10/30 07:28:51;;;;;;;6.87;4.37;;;15.40;99.90;;;;;;5015918;28;20456;-63
2023/10/30 07:31:18;;;;;;;4.30;4.00;;;15.50;99.90;;;;;;5015136;28;20437;-63
2023/10/30 07:33:45;;;;;;;3.90;3.57;;;15.70;99.90;;;;;;5015955;28;20418;-64
2023/10/30 07:36:11;;;;;;;4.00;3.70;;;15.80;99.90;;;;;;5014471;28;20808;-63
2023/10/30 07:38:37;;;;;;;4.63;3.40;;;15.80;99.90;;;;;;5010521;28;20429;-63
2023/10/30 07:41:03;;;;;;;3.93;3.63;;;15.90;99.90;;;;;;5014317;28;20175;-64
2023/10/30 07:43:29;;;;;;;4.13;3.77;;;16.00;99.90;;;;;;5015375;28;20421;-64
2023/10/30 07:45:56;;;;;;;4.13;3.83;;;16.00;99.90;;;;;;5014945;28;20475;-60
2023/10/30 07:48:22;;;;;;;4.83;4.43;;;16.00;99.90;;;;;;5015112;28;20170;-68
2023/10/30 07:50:48;;;;;;;4.47;3.97;;;16.10;99.90;;;;;;5015391;28;20461;-68
2023/10/30 07:53:17;;;;;;;4.67;4.20;;;15.70;99.90;;;;;;5013807;28;20452;-68
2023/10/30 07:55:42;;;;;;;10.53;5.20;;;15.50;99.90;;;;;;5007196;28;20573;-64
2023/10/30 07:58:09;;;;;;;4.80;4.33;;;15.40;99.90;;;;;;5012906;28;20478;-68
2023/10/30 08:00:35;;;;;;;4.37;4.03;;;15.40;99.90;;;;;;5014348;28;20194;-66
2023/10/30 08:03:02;;;;;;;5.17;4.67;;;15.40;99.90;;;;;;5011630;28;20548;-67
2023/10/30 08:05:28;;;;;;;4.70;3.60;;;15.10;99.90;;;;;;5008104;28;20461;-65
2023/10/30 08:07:54;;;;;;;5.50;4.97;;;15.20;99.90;;;;;;5013125;28;21005;-66
2023/10/30 08:10:19;;;;;;;4.00;3.60;;;15.30;99.90;;;;;;5012848;28;20190;-66
2023/10/30 08:12:45;;;;;;;5.00;4.00;;;15.30;99.90;;;;;;5010496;28;20191;-68
2023/10/30 08:15:11;;;;;;;6.13;5.63;;;15.40;99.90;;;;;;5013802;28;20198;-68
2023/10/30 08:17:37;;;;;;;4.23;3.83;;;15.60;99.90;;;;;;5013781;28;20913;-68
2023/10/30 08:20:04;;;;;;;4.27;3.97;;;15.40;99.90;;;;;;5012618;28;20196;-67
2023/10/30 08:22:30;;;;;;;10.30;6.17;;;15.40;99.90;;;;;;5014070;28;20653;-68
2023/10/30 08:24:55;;;;;;;9.60;6.93;;;15.50;99.90;;;;;;5012260;28;20798;-63
2023/10/30 08:27:21;;;;;;;7.03;3.63;;;15.50;99.90;;;;;;5011456;28;20428;-64
2023/10/30 08:29:47;;;;;;;436.53;153.07;;;15.40;99.90;;;;;;5015070;28;20634;-64
2023/10/30 08:32:13;;;;;;;78.40;57.27;;;15.60;99.90;;;;;;5014590;28;20526;-65
2023/10/30 08:34:39;;;;;;;10.17;8.23;;;15.80;99.90;;;;;;5014630;28;20893;-65
2023/10/30 08:37:05;;;;;;;5.67;5.07;;;15.90;99.90;;;;;;5012634;28;20186;-65
2023/10/30 08:39:30;;;;;;;7.93;6.63;;;16.00;99.90;;;;;;5014762;28;20405;-64
2023/10/30 08:41:56;;;;;;;4.57;4.17;;;16.10;99.90;;;;;;5012257;28;20206;-62
2023/10/30 08:44:22;;;;;;;5.87;5.43;;;16.10;99.90;;;;;;5013932;28;20213;-67
2023/10/30 08:46:48;;;;;;;4.60;4.20;;;16.10;99.90;;;;;;5003694;28;20198;-66
2023/10/30 08:49:14;;;;;;;4.27;3.80;;;16.20;99.90;;;;;;5013540;28;20179;-67
2023/10/30 08:51:43;;;;;;;8.00;6.47;;;16.10;99.90;;;;;;5013907;28;20296;-67
2023/10/30 08:54:09;;;;;;;253.43;158.57;;;16.10;99.90;;;;;;5013588;28;20430;-69
2023/10/30 08:56:36;;;;;;;16.70;12.53;;;16.30;99.90;;;;;;5013742;28;20425;-71
2023/10/30 08:59:03;;;;;;;4.20;3.87;;;16.50;99.90;;;;;;5012874;28;20480;-68
2023/10/30 09:01:31;;;;;;;5.13;3.70;;;16.70;99.90;;;;;;5013875;28;20422;-71
2023/10/30 09:03:57;;;;;;;3.57;3.20;;;16.80;99.90;;;;;;5013809;28;20497;-71
2023/10/30 09:06:23;;;;;;;7.30;3.90;;;16.90;99.90;;;;;;5013010;28;20449;-71
2023/10/30 09:08:49;;;;;;;4.07;3.87;;;17.10;99.90;;;;;;5013534;28;20925;-70
2023/10/30 09:11:15;;;;;;;5.13;4.73;;;17.20;99.90;;;;;;5012057;28;20475;-69
2023/10/30 09:13:41;;;;;;;3.63;3.30;;;17.30;99.90;;;;;;5013685;28;20186;-68
2023/10/30 09:16:08;;;;;;;3.97;3.60;;;17.20;99.90;;;;;;5013405;28;20394;-67
2023/10/30 09:18:34;;;;;;;4.17;3.03;;;17.30;99.90;;;;;;5014113;28;20631;-68
2023/10/30 09:21:00;;;;;;;4.07;2.93;;;17.40;99.90;;;;;;5011970;28;20441;-61
2023/10/30 09:23:26;;;;;;;4.27;3.67;;;17.60;99.90;;;;;;5013522;28;20426;-67
2023/10/30 09:25:52;;;;;;;3.20;3.00;;;17.40;99.90;;;;;;5012543;28;20501;-68
2023/10/30 09:28:18;;;;;;;3.63;2.90;;;17.40;99.90;;;;;;5013246;28;20232;-76
2023/10/30 09:30:44;;;;;;;2.70;2.60;;;17.40;99.90;;;;;;5013737;28;20305;-72
2023/10/30 09:33:10;;;;;;;3.20;3.00;;;17.50;99.90;;;;;;5014128;28;20571;-76
2023/10/30 09:35:37;;;;;;;2.73;2.53;;;17.70;99.90;;;;;;5024352;28;20912;-71
2023/10/30 09:38:04;;;;;;;3.53;3.33;;;17.70;99.90;;;;;;5022732;28;20792;-70
2023/10/30 09:40:30;;;;;;;3.30;3.10;;;17.90;99.90;;;;;;5022181;28;20399;-68
2023/10/30 09:42:56;;;;;;;3.30;3.03;;;17.90;99.90;;;;;;5024699;28;20579;-68
2023/10/30 09:45:26;;;;;;;2.57;2.47;;;17.70;99.90;;;;;;5020667;28;20489;-68
2023/10/30 09:47:53;;;;;;;2.97;2.87;;;17.90;99.90;;;;;;5020109;28;20430;-68
2023/10/30 09:50:20;;;;;;;2.97;2.80;;;17.90;99.90;;;;;;5019271;28;20464;-68
2023/10/30 09:52:51;;;;;;;3.43;3.33;;;17.80;99.90;;;;;;5023407;28;20485;-68
2023/10/30 09:55:18;;;;;;;3.70;2.77;;;17.70;99.90;;;;;;5019147;28;20398;-69
2023/10/30 09:57:48;;;;;;;3.90;3.80;;;17.60;99.90;;;;;;5022220;28;20417;-68
2023/10/30 10:00:15;;;;;;;3.73;3.50;;;17.60;99.90;;;;;;5015039;28;20409;-68
2023/10/30 10:02:41;;;;;;;3.30;3.10;;;17.60;99.90;;;;;;5021102;28;20413;-68
2023/10/30 10:05:12;;;;;;;3.80;3.60;;;17.60;99.90;;;;;;5022654;28;20487;-68
2023/10/30 10:07:39;;;;;;;3.20;3.10;;;17.70;99.90;;;;;;5022652;28;20459;-68
2023/10/30 10:10:07;;;;;;;3.90;3.70;;;17.80;99.90;;;;;;5019357;28;20424;-68
2023/10/30 10:12:36;;;;;;;4.87;4.67;;;17.80;99.90;;;;;;5022615;28;20421;-68
2023/10/30 10:15:06;;;;;;;4.00;3.70;;;17.90;99.90;;;;;;5018704;28;20500;-68
2023/10/30 10:17:44;;;;;;;2.90;2.70;;;17.90;99.90;;;;;;5022209;28;20433;-68
2023/10/30 10:20:11;;;;;;;2.60;2.50;;;17.90;99.90;;;;;;5020438;28;20425;-68
2023/10/30 10:22:37;;;;;;;4.17;3.80;;;18.00;99.90;;;;;;5020858;28;20468;-69
2023/10/30 10:25:04;;;;;;;3.70;3.60;;;18.00;99.90;;;;;;5021526;28;20446;-68
2023/10/30 10:27:30;;;;;;;3.20;3.00;;;18.10;99.90;;;;;;5021092;28;20439;-69
2023/10/30 10:29:57;;;;;;;3.60;3.30;;;18.00;99.90;;;;;;5024300;28;20411;-69
2023/10/30 10:32:27;;;;;;;3.57;3.40;;;18.00;99.90;;;;;;5019464;28;20417;-68
2023/10/30 10:34:55;;;;;;;3.70;3.50;;;18.10;99.90;;;;;;5024039;28;20410;-69
2023/10/30 10:37:21;;;;;;;3.33;3.07;;;18.20;99.90;;;;;;5020678;28;20418;-68
2023/10/30 10:39:51;;;;;;;3.97;3.77;;;18.40;99.90;;;;;;5013365;28;20830;-68
2023/10/30 10:42:18;;;;;;;2.90;2.80;;;18.50;99.90;;;;;;5009781;28;20178;-68
2023/10/30 10:44:46;;;;;;;3.60;3.40;;;18.80;99.90;;;;;;5011813;28;20480;-68
2023/10/30 10:47:12;;;;;;;4.10;3.90;;;19.10;99.90;;;;;;5010578;28;20464;-68
2023/10/30 10:49:38;;;;;;;4.30;4.10;;;19.50;99.90;;;;;;5012256;28;20480;-68
2023/10/30 10:52:09;;;;;;;2.50;2.40;;;19.70;99.70;;;;;;5011519;28;20871;-68
2023/10/30 10:54:52;;;;;;;2.87;2.73;;;20.00;99.40;;;;;;5025314;28;20496;-68
2023/10/30 10:57:21;;;;;;;2.20;2.20;;;20.40;99.70;;;;;;5017522;28;20436;-68
2023/10/30 10:59:54;;;;;;;2.90;2.80;;;20.70;98.10;;;;;;5012202;28;20414;-68
2023/10/30 11:02:29;;;;;;;3.53;3.33;;;20.90;95.70;;;;;;5011456;28;20414;-68
2023/10/30 11:04:57;;;;;;;4.07;3.90;;;20.80;96.10;;;;;;5011777;28;20441;-68
2023/10/30 11:07:46;;;;;;;3.20;3.10;;;20.70;95.70;;;;;;5011161;28;20545;-68
2023/10/30 11:10:41;;;;;;;3.47;3.27;;;20.50;95.20;;;;;;5001847;28;20428;-67
2023/10/30 11:13:33;;;;;;;2.83;2.73;;;20.10;96.30;;;;;;5007608;28;20464;-67
2023/10/30 11:16:09;;;;;;;2.67;2.57;;;20.10;97.50;;;;;;5010891;28;20882;-69
2023/10/30 11:18:37;;;;;;;3.40;3.30;;;20.10;97.50;;;;;;5012137;28;20882;-68
2023/10/30 11:21:12;;;;;;;2.50;2.40;;;20.20;97.40;;;;;;5011918;28;20417;-68
2023/10/30 11:23:44;;;;;;;2.97;2.87;;;20.00;96.40;;;;;;4992503;28;20424;-69
2023/10/30 11:26:44;;;;;;;2.80;2.70;;;19.90;97.40;;;;;;4991818;28;20425;-67
2023/10/30 11:29:21;;;;;;;2.93;2.73;;;20.10;97.50;;;;;;4999174;28;20437;-67
2023/10/30 11:31:50;;;;;;;4.73;4.43;;;19.90;97.30;;;;;;5010713;28;20436;-68
2023/10/30 11:34:16;;;;;;;2.93;2.83;;;19.90;97.00;;;;;;5011073;28;20913;-69
2023/10/30 11:36:46;;;;;;;3.10;2.50;;;19.80;97.50;;;;;;5010746;28;20466;-68
2023/10/30 11:39:11;;;;;;;2.50;2.40;;;19.70;97.20;;;;;;5010399;28;20421;-68
2023/10/30 11:41:44;;;;;;;2.63;2.53;;;19.50;98.30;;;;;;5011962;28;20753;-67
2023/10/30 11:44:10;;;;;;;3.40;3.33;;;19.50;98.60;;;;;;5011364;28;20293;-66
2023/10/30 11:46:44;;;;;;;2.80;2.67;;;19.60;98.40;;;;;;5011731;28;20517;-67
2023/10/30 11:49:19;;;;;;;2.57;2.57;;;19.70;99.20;;;;;;5011307;28;20401;-67
2023/10/30 11:51:46;;;;;;;2.30;2.30;;;19.80;98.30;;;;;;5011618;28;20457;-67
2023/10/30 11:54:18;;;;;;;3.87;3.77;;;19.80;97.90;;;;;;5010957;28;20418;-67
2023/10/30 11:56:48;;;;;;;2.90;2.80;;;19.90;98.00;;;;;;5013554;28;20925;-67
2023/10/30 11:59:15;;;;;;;2.50;2.40;;;19.70;97.20;;;;;;5012475;28;20821;-67
2023/10/30 12:01:43;;;;;;;2.30;2.20;;;19.60;97.60;;;;;;5014474;28;20437;-67
2023/10/30 12:04:09;;;;;;;3.53;3.40;;;19.50;98.60;;;;;;5014881;28;20540;-67
2023/10/30 12:06:35;;;;;;;2.30;2.30;;;19.10;98.20;;;;;;5014628;28;20418;-67
2023/10/30 12:09:01;;;;;;;3.20;3.10;;;18.70;99.90;;;;;;5014547;28;20544;-67
2023/10/30 12:11:27;;;;;;;2.50;2.40;;;18.30;99.90;;;;;;5014383;28;20405;-65
2023/10/30 12:13:54;;;;;;;2.73;2.60;;;18.20;99.90;;;;;;5014821;28;20575;-71
2023/10/30 12:16:20;;;;;;;3.07;2.73;;;18.10;99.90;;;;;;5014003;28;20773;-66
2023/10/30 12:18:46;;;;;;;2.63;2.63;;;17.80;99.90;;;;;;5014143;28;20448;-70
2023/10/30 12:21:13;;;;;;;2.70;2.70;;;17.80;99.90;;;;;;5014375;28;20426;-63
2023/10/30 12:23:49;;;;;;;2.80;2.70;;;17.80;99.90;;;;;;5014408;28;20186;-70
2023/10/30 12:26:15;;;;;;;2.67;2.57;;;17.70;99.90;;;;;;5012490;28;20418;-70
2023/10/30 12:28:43;;;;;;;2.77;2.67;;;17.50;99.90;;;;;;5014464;28;20842;-67
2023/10/30 12:31:22;;;;;;;2.60;2.50;;;17.60;99.90;;;;;;5013141;28;20781;-67
2023/10/30 12:34:12;;;;;;;3.00;2.90;;;17.70;99.90;;;;;;5014689;28;20544;-67
2023/10/30 12:36:38;;;;;;;2.80;2.70;;;17.60;99.90;;;;;;5014211;28;20407;-67
2023/10/30 12:39:21;;;;;;;2.40;2.30;;;17.60;99.90;;;;;;5012452;28;20438;-67
2023/10/30 12:41:55;;;;;;;2.53;2.43;;;17.70;99.90;;;;;;5009104;28;20952;-67
2023/10/30 12:44:23;;;;;;;2.60;2.50;;;17.60;99.90;;;;;;5011457;28;20779;-67